Time;durP1;ratioP1;P1;durP2;ratioP2;P2;SDS_P1;SDS_P2;PMS_P1;PMS_P2;Temp;Humidity;BMP_temperature;BMP_pressure;BME280_temperature;BME280_humidity;BME280_pressure;Samples;Min_cycle;Max_cycle;Signal;HPM_P1;HPM_P2
2022/07/21 00:00:52;;;;;;;35.28;26.48;;;;;;;;;;5016836;28;20045;-78
2022/07/21 00:03:17;;;;;;;35.47;25.67;;;;;;;;;;5022474;28;20030;-77
2022/07/21 00:05:42;;;;;;;38.95;26.00;;;;;;;;;;5003804;28;20309;-77
2022/07/21 00:08:07;;;;;;;36.80;27.73;;;;;;;;;;5000981;28;20052;-75
2022/07/21 00:10:33;;;;;;;34.80;26.27;;;;;;;;;;5004202;28;21184;-77
2022/07/21 00:12:58;;;;;;;34.13;26.80;;;;;;;;;;5020715;28;20052;-75
2022/07/21 00:15:24;;;;;;;37.83;27.20;;;;;;;;;;5002254;28;20492;-78
2022/07/21 00:17:49;;;;;;;37.75;28.40;;;;;;;;;;5021649;28;20290;-76
2022/07/21 00:20:15;;;;;;;33.47;25.83;;;;;;;;;;5007013;28;20044;-75
2022/07/21 00:22:40;;;;;;;36.70;26.08;;;;;;;;;;5023045;28;20033;-77
2022/07/21 00:25:06;;;;;;;37.92;27.50;;;;;;;;;;5021900;28;20029;-78
2022/07/21 00:27:31;;;;;;;35.70;26.88;;;;;;;;;;5018305;28;20071;-78
2022/07/21 00:29:57;;;;;;;39.35;29.00;;;;;;;;;;5019983;28;20026;-74
2022/07/21 00:32:22;;;;;;;35.45;26.92;;;;;;;;;;5020907;28;20033;-76
2022/07/21 00:34:47;;;;;;;36.67;28.20;;;;;;;;;;5021602;28;20118;-77
2022/07/21 00:37:12;;;;;;;34.77;26.30;;;;;;;;;;5020460;28;20377;-76
2022/07/21 00:39:37;;;;;;;38.45;27.85;;;;;;;;;;5018098;28;20792;-78
2022/07/21 00:42:03;;;;;;;40.00;30.23;;;;;;;;;;5021039;28;20030;-78
2022/07/21 00:44:28;;;;;;;44.72;28.77;;;;;;;;;;5005525;28;20030;-77
2022/07/21 00:46:54;;;;;;;38.53;28.83;;;;;;;;;;5000232;28;20041;-78
2022/07/21 00:49:19;;;;;;;41.47;31.08;;;;;;;;;;5018530;28;20029;-78
2022/07/21 00:51:45;;;;;;;39.13;26.50;;;;;;;;;;5020176;28;20119;-78
2022/07/21 00:54:10;;;;;;;31.92;24.00;;;;;;;;;;5015489;28;20033;-78
2022/07/21 00:56:35;;;;;;;39.08;27.88;;;;;;;;;;5019789;28;20112;-76
2022/07/21 00:59:01;;;;;;;29.13;22.42;;;;;;;;;;5022868;28;20044;-76
2022/07/21 01:01:26;;;;;;;29.42;21.45;;;;;;;;;;4999130;28;20048;-79
2022/07/21 01:03:51;;;;;;;32.08;22.63;;;;;;;;;;5019376;28;20761;-77
2022/07/21 01:06:17;;;;;;;28.20;21.65;;;;;;;;;;5017783;28;20040;-76
2022/07/21 01:08:42;;;;;;;27.00;22.10;;;;;;;;;;5013175;28;20405;-76
2022/07/21 01:11:07;;;;;;;31.90;22.20;;;;;;;;;;5017906;28;20287;-77
2022/07/21 01:13:32;;;;;;;29.50;21.58;;;;;;;;;;5021372;28;20508;-78
2022/07/21 01:15:58;;;;;;;30.80;21.95;;;;;;;;;;5001278;28;20133;-76
2022/07/21 01:18:23;;;;;;;27.35;20.85;;;;;;;;;;5013992;28;20029;-78
2022/07/21 01:20:51;;;;;;;31.02;21.45;;;;;;;;;;5019661;28;20014;-78
2022/07/21 01:23:16;;;;;;;30.45;21.10;;;;;;;;;;5016001;28;20029;-78
2022/07/21 01:25:46;;;;;;;25.95;20.35;;;;;;;;;;5012816;28;20037;-77
2022/07/21 01:28:11;;;;;;;27.83;20.52;;;;;;;;;;5019332;28;20022;-78
2022/07/21 01:30:36;;;;;;;26.63;20.93;;;;;;;;;;5016857;28;21843;-77
2022/07/21 01:33:02;;;;;;;28.67;20.27;;;;;;;;;;5013404;28;20278;-77
2022/07/21 01:35:27;;;;;;;26.08;20.33;;;;;;;;;;5018672;28;20317;-77
2022/07/21 01:37:54;;;;;;;28.90;21.63;;;;;;;;;;5002208;28;20049;-76
2022/07/21 01:43:04;;;;;;;27.27;20.38;;;;;;;;;;5015810;28;20060;-77
2022/07/21 01:45:29;;;;;;;25.77;20.15;;;;;;;;;;5002404;28;20152;-77
2022/07/21 01:47:55;;;;;;;26.13;20.20;;;;;;;;;;4998819;28;20234;-78
2022/07/21 01:50:26;;;;;;;26.05;19.35;;;;;;;;;;5015971;28;22252;-76
2022/07/21 01:52:51;;;;;;;23.33;18.70;;;;;;;;;;5015658;28;20386;-78
2022/07/21 01:55:16;;;;;;;23.83;19.65;;;;;;;;;;5018385;28;20041;-77
2022/07/21 01:57:42;;;;;;;22.77;16.45;;;;;;;;;;5021698;28;20514;-76
2022/07/21 02:00:07;;;;;;;21.57;16.87;;;;;;;;;;5018358;28;20033;-75
2022/07/21 02:02:32;;;;;;;25.95;18.08;;;;;;;;;;5020924;28;20377;-77
2022/07/21 02:04:57;;;;;;;21.58;16.05;;;;;;;;;;5002834;28;20040;-77
2022/07/21 02:07:23;;;;;;;19.63;15.07;;;;;;;;;;5005678;28;20037;-76
2022/07/21 02:09:51;;;;;;;21.97;17.17;;;;;;;;;;5018249;28;20064;-76
2022/07/21 02:12:16;;;;;;;24.85;16.98;;;;;;;;;;5018745;28;20293;-76
2022/07/21 02:14:41;;;;;;;22.27;17.02;;;;;;;;;;5018161;28;20025;-77
2022/07/21 02:17:06;;;;;;;19.52;15.90;;;;;;;;;;5022191;28;20046;-76
2022/07/21 02:19:32;;;;;;;20.53;15.83;;;;;;;;;;5017437;28;20034;-78
2022/07/21 02:21:57;;;;;;;22.10;15.90;;;;;;;;;;5020753;28;20287;-76
2022/07/21 02:24:22;;;;;;;24.50;17.20;;;;;;;;;;5004935;28;20036;-77
2022/07/21 02:26:47;;;;;;;22.38;16.42;;;;;;;;;;5001773;28;20584;-77
2022/07/21 02:29:12;;;;;;;25.52;18.77;;;;;;;;;;5023224;28;20079;-76
2022/07/21 02:31:38;;;;;;;24.88;16.55;;;;;;;;;;5017013;28;20144;-77
2022/07/21 02:34:03;;;;;;;21.63;16.42;;;;;;;;;;5018574;28;20044;-76
2022/07/21 02:36:28;;;;;;;23.58;17.45;;;;;;;;;;5023392;28;20025;-76
2022/07/21 02:38:53;;;;;;;23.45;18.40;;;;;;;;;;5017326;28;20120;-77
2022/07/21 02:41:19;;;;;;;22.40;18.80;;;;;;;;;;5019808;28;20057;-76
2022/07/21 02:43:44;;;;;;;27.67;19.92;;;;;;;;;;5020781;28;20029;-78
2022/07/21 02:46:09;;;;;;;35.15;27.98;;;;;;;;;;5016887;28;20034;-76
2022/07/21 02:48:34;;;;;;;31.27;21.77;;;;;;;;;;5020376;28;20392;-78
2022/07/21 02:51:00;;;;;;;26.08;21.08;;;;;;;;;;5017333;28;20675;-78
2022/07/21 02:53:28;;;;;;;30.20;22.33;;;;;;;;;;5027068;28;20127;-77
2022/07/21 02:55:53;;;;;;;29.10;20.85;;;;;;;;;;5020422;28;20289;-76
2022/07/21 02:58:20;;;;;;;22.77;19.60;;;;;;;;;;5001014;28;20037;-78
2022/07/21 03:00:48;;;;;;;28.80;22.23;;;;;;;;;;5022073;28;20461;-76
2022/07/21 03:03:13;;;;;;;29.80;23.00;;;;;;;;;;5019181;28;20430;-78
2022/07/21 03:05:38;;;;;;;29.67;22.33;;;;;;;;;;5027697;28;20037;-78
2022/07/21 03:08:05;;;;;;;24.80;19.75;;;;;;;;;;5017386;28;20492;-77
2022/07/21 03:10:33;;;;;;;28.42;21.88;;;;;;;;;;5021315;28;20050;-76
2022/07/21 03:12:58;;;;;;;28.30;20.95;;;;;;;;;;5020147;28;20052;-76
2022/07/21 03:15:24;;;;;;;24.27;19.67;;;;;;;;;;5022987;28;20064;-78
2022/07/21 03:17:49;;;;;;;25.88;20.50;;;;;;;;;;5001578;28;20507;-76
2022/07/21 03:20:14;;;;;;;26.58;19.42;;;;;;;;;;5020568;28;20021;-76
2022/07/21 03:22:40;;;;;;;24.30;19.20;;;;;;;;;;5023634;28;20198;-77
2022/07/21 03:25:05;;;;;;;25.67;19.15;;;;;;;;;;5021071;28;20037;-78
2022/07/21 03:27:35;;;;;;;25.50;19.67;;;;;;;;;;5023876;28;20033;-77
2022/07/21 03:30:02;;;;;;;25.60;19.08;;;;;;;;;;5001258;28;20030;-78
2022/07/21 03:32:27;;;;;;;26.75;20.02;;;;;;;;;;5022021;28;20088;-78
2022/07/21 03:34:53;;;;;;;25.60;19.75;;;;;;;;;;5017731;28;20042;-77
2022/07/21 03:37:18;;;;;;;26.90;19.00;;;;;;;;;;5021631;28;20034;-79
2022/07/21 03:39:43;;;;;;;25.05;19.35;;;;;;;;;;5004976;28;20297;-77
2022/07/21 03:42:08;;;;;;;22.57;17.13;;;;;;;;;;5020221;28;20052;-78
2022/07/21 03:44:36;;;;;;;27.90;18.70;;;;;;;;;;5024182;28;20285;-74
2022/07/21 03:47:02;;;;;;;27.00;20.27;;;;;;;;;;5004913;28;20790;-77
2022/07/21 03:49:28;;;;;;;19.88;16.85;;;;;;;;;;5017939;28;20029;-77
2022/07/21 03:51:53;;;;;;;19.45;15.93;;;;;;;;;;5024380;28;20053;-76
2022/07/21 03:54:18;;;;;;;20.75;15.63;;;;;;;;;;5017873;28;20032;-75
2022/07/21 03:56:43;;;;;;;22.13;17.67;;;;;;;;;;5022156;28;20037;-75
2022/07/21 03:59:08;;;;;;;21.83;16.87;;;;;;;;;;5022196;28;20127;-77
2022/07/21 04:01:34;;;;;;;21.73;16.88;;;;;;;;;;4998945;28;20286;-78
2022/07/21 04:03:59;;;;;;;20.88;15.63;;;;;;;;;;5024722;28;20027;-77
2022/07/21 04:06:24;;;;;;;19.03;15.20;;;;;;;;;;5025317;28;20049;-75
2022/07/21 04:08:49;;;;;;;17.53;14.60;;;;;;;;;;5022092;28;20379;-75
2022/07/21 04:11:14;;;;;;;21.33;16.13;;;;;;;;;;5020557;28;20360;-77
2022/07/21 04:13:40;;;;;;;22.80;17.75;;;;;;;;;;5022517;28;20547;-77
2022/07/21 04:16:05;;;;;;;19.58;15.90;;;;;;;;;;5000048;28;20036;-75
2022/07/21 04:18:30;;;;;;;17.73;15.40;;;;;;;;;;5021051;28;20037;-76
2022/07/21 04:20:56;;;;;;;20.65;15.52;;;;;;;;;;4998647;28;20469;-77
2022/07/21 04:23:21;;;;;;;20.67;16.83;;;;;;;;;;5024108;28;20431;-77
2022/07/21 04:25:46;;;;;;;20.73;17.02;;;;;;;;;;5021027;28;20275;-75
2022/07/21 04:28:11;;;;;;;18.33;14.80;;;;;;;;;;5002066;28;20029;-75
2022/07/21 04:30:36;;;;;;;22.80;17.15;;;;;;;;;;5020911;28;20294;-78
2022/07/21 04:33:02;;;;;;;24.43;17.40;;;;;;;;;;5003205;28;20017;-77
2022/07/21 04:35:27;;;;;;;24.30;17.63;;;;;;;;;;5019196;28;20356;-78
2022/07/21 04:37:52;;;;;;;19.48;15.88;;;;;;;;;;5004603;28;20125;-77
2022/07/21 04:40:20;;;;;;;18.35;15.10;;;;;;;;;;5018419;28;20025;-76
2022/07/21 04:42:48;;;;;;;20.85;14.43;;;;;;;;;;5020958;28;20393;-77
2022/07/21 04:45:17;;;;;;;20.38;16.02;;;;;;;;;;5022258;28;20022;-76
2022/07/21 04:47:45;;;;;;;20.27;16.25;;;;;;;;;;5018274;28;20022;-76
2022/07/21 04:50:11;;;;;;;26.25;19.50;;;;;;;;;;5019735;28;20100;-77
2022/07/21 04:52:36;;;;;;;21.20;16.83;;;;;;;;;;5018360;28;20447;-78
2022/07/21 04:55:02;;;;;;;20.60;16.92;;;;;;;;;;5020016;28;20032;-76
2022/07/21 04:57:27;;;;;;;20.65;16.30;;;;;;;;;;5021907;28;20071;-75
2022/07/21 04:59:52;;;;;;;27.20;19.38;;;;;;;;;;5018688;28;20032;-76
2022/07/21 05:02:18;;;;;;;22.77;17.00;;;;;;;;;;5012271;28;20032;-77
2022/07/21 05:04:43;;;;;;;20.88;17.40;;;;;;;;;;5004090;28;20365;-75
2022/07/21 05:07:08;;;;;;;26.23;20.83;;;;;;;;;;5023903;28;20132;-78
2022/07/21 05:09:33;;;;;;;23.88;18.40;;;;;;;;;;5019092;28;20392;-78
2022/07/21 05:11:59;;;;;;;25.25;18.25;;;;;;;;;;5022910;28;20148;-75
2022/07/21 05:14:24;;;;;;;20.85;16.00;;;;;;;;;;5006545;28;20120;-75
2022/07/21 05:16:49;;;;;;;25.10;20.23;;;;;;;;;;5021843;28;20366;-77
2022/07/21 05:19:14;;;;;;;21.33;17.50;;;;;;;;;;5006503;28;20415;-76
2022/07/21 05:21:40;;;;;;;20.93;16.93;;;;;;;;;;5004430;28;20541;-77
2022/07/21 05:24:05;;;;;;;25.15;20.02;;;;;;;;;;5003622;28;20262;-78
2022/07/21 05:26:30;;;;;;;23.92;19.52;;;;;;;;;;5017173;28;20049;-76
2022/07/21 05:28:55;;;;;;;26.37;18.60;;;;;;;;;;5017872;28;20025;-77
2022/07/21 05:31:21;;;;;;;26.83;18.00;;;;;;;;;;5013745;28;20305;-77
2022/07/21 05:33:46;;;;;;;28.40;19.48;;;;;;;;;;5016600;28;20607;-76
2022/07/21 05:36:11;;;;;;;21.80;17.60;;;;;;;;;;4996726;28;20037;-77
2022/07/21 05:38:36;;;;;;;30.23;21.65;;;;;;;;;;5020752;28;20279;-76
2022/07/21 05:41:04;;;;;;;30.25;21.67;;;;;;;;;;5017404;28;20026;-76
2022/07/21 05:43:33;;;;;;;30.92;20.48;;;;;;;;;;4995417;28;20055;-78
2022/07/21 05:45:58;;;;;;;23.85;18.60;;;;;;;;;;5022530;28;20033;-76
2022/07/21 05:48:23;;;;;;;31.17;23.20;;;;;;;;;;5019493;28;20469;-78
2022/07/21 05:50:49;;;;;;;32.55;21.23;;;;;;;;;;5015330;28;20037;-76
2022/07/21 05:53:14;;;;;;;32.65;22.02;;;;;;;;;;5020570;28;20453;-78
2022/07/21 05:55:39;;;;;;;35.92;24.20;;;;;;;;;;4993583;28;20037;-78
2022/07/21 05:58:04;;;;;;;29.25;20.88;;;;;;;;;;5015050;28;20021;-78
2022/07/21 06:00:29;;;;;;;33.47;22.90;;;;;;;;;;5015815;28;20046;-77
2022/07/21 06:02:55;;;;;;;43.55;28.63;;;;;;;;;;4996538;28;20063;-77
2022/07/21 06:05:20;;;;;;;38.90;25.90;;;;;;;;;;5020622;28;20420;-77
2022/07/21 06:07:45;;;;;;;34.90;22.80;;;;;;;;;;5019423;28;20224;-78
2022/07/21 06:10:11;;;;;;;33.38;24.02;;;;;;;;;;5015460;28;20548;-78
2022/07/21 06:12:36;;;;;;;38.45;26.05;;;;;;;;;;5015010;28;20026;-78
2022/07/21 06:15:01;;;;;;;39.05;26.42;;;;;;;;;;5018305;28;20452;-77
2022/07/21 06:17:31;;;;;;;37.58;24.75;;;;;;;;;;5011871;28;20037;-77
2022/07/21 06:19:58;;;;;;;45.10;29.35;;;;;;;;;;5015047;28;20307;-77
2022/07/21 06:22:23;;;;;;;40.03;27.65;;;;;;;;;;5017473;28;20120;-77
2022/07/21 06:24:48;;;;;;;39.60;25.95;;;;;;;;;;5015985;28;20454;-78
2022/07/21 06:27:14;;;;;;;36.73;23.53;;;;;;;;;;5018585;28;20021;-78
2022/07/21 06:29:39;;;;;;;38.05;25.88;;;;;;;;;;5023466;28;22678;-78
2022/07/21 06:32:04;;;;;;;38.00;26.38;;;;;;;;;;5003847;28;20053;-78
2022/07/21 06:34:29;;;;;;;43.80;29.25;;;;;;;;;;5020657;28;20044;-76
2022/07/21 06:36:55;;;;;;;40.15;26.98;;;;;;;;;;5021927;28;20067;-76
2022/07/21 06:39:20;;;;;;;32.63;22.77;;;;;;;;;;5019568;28;20030;-77
2022/07/21 06:41:45;;;;;;;45.13;27.40;;;;;;;;;;5021242;28;20266;-77
2022/07/21 06:44:10;;;;;;;44.35;29.33;;;;;;;;;;5028565;28;20026;-78
2022/07/21 06:46:35;;;;;;;42.53;28.07;;;;;;;;;;5005867;28;20493;-77
2022/07/21 06:49:01;;;;;;;51.28;34.70;;;;;;;;;;5028581;28;20289;-78
2022/07/21 06:51:26;;;;;;;48.78;33.17;;;;;;;;;;5013721;28;20369;-78
2022/07/21 06:53:52;;;;;;;40.83;28.73;;;;;;;;;;5027626;28;20018;-77
2022/07/21 06:56:17;;;;;;;40.33;29.38;;;;;;;;;;5028508;28;20033;-78
2022/07/21 06:58:43;;;;;;;44.47;29.38;;;;;;;;;;5024197;28;20156;-78
2022/07/21 07:01:08;;;;;;;39.70;25.73;;;;;;;;;;5027539;28;20079;-77
2022/07/21 07:03:33;;;;;;;44.03;29.40;;;;;;;;;;5024115;28;20026;-79
2022/07/21 07:05:58;;;;;;;43.03;28.77;;;;;;;;;;5043913;28;20021;-78
2022/07/21 07:08:24;;;;;;;42.00;29.23;;;;;;;;;;5043392;28;20038;-76
2022/07/21 07:10:49;;;;;;;42.90;28.40;;;;;;;;;;5018174;28;20306;-78
2022/07/21 07:13:15;;;;;;;46.97;30.25;;;;;;;;;;5033264;28;20061;-78
2022/07/21 07:15:40;;;;;;;52.45;32.85;;;;;;;;;;5029375;28;20543;-77
2022/07/21 07:18:05;;;;;;;43.15;30.02;;;;;;;;;;5039785;28;20040;-78
2022/07/21 07:20:31;;;;;;;53.25;32.95;;;;;;;;;;5032417;28;20393;-76
2022/07/21 07:22:56;;;;;;;48.85;31.50;;;;;;;;;;5034232;28;20029;-77
2022/07/21 07:25:21;;;;;;;57.85;34.00;;;;;;;;;;5030241;28;20040;-78
2022/07/21 07:27:48;;;;;;;49.28;30.58;;;;;;;;;;5031930;28;20039;-78
2022/07/21 07:30:14;;;;;;;54.55;33.55;;;;;;;;;;5027678;28;20029;-78
2022/07/21 07:32:40;;;;;;;49.38;32.25;;;;;;;;;;5030220;28;20017;-77
2022/07/21 07:35:05;;;;;;;49.58;30.50;;;;;;;;;;5030211;28;20108;-79
2022/07/21 07:37:32;;;;;;;51.15;31.25;;;;;;;;;;5040994;28;20129;-78
2022/07/21 07:39:59;;;;;;;54.45;34.45;;;;;;;;;;5034945;28;20093;-78
2022/07/21 07:42:24;;;;;;;49.72;31.00;;;;;;;;;;5032249;28;20021;-76
2022/07/21 07:44:49;;;;;;;62.08;36.20;;;;;;;;;;5034139;28;20512;-76
2022/07/21 07:47:17;;;;;;;56.63;34.77;;;;;;;;;;5026565;28;20041;-75
2022/07/21 07:49:49;;;;;;;51.88;34.58;;;;;;;;;;5026317;28;20275;-78
2022/07/21 07:52:14;;;;;;;65.77;38.10;;;;;;;;;;5017638;28;20108;-75
2022/07/21 07:54:39;;;;;;;63.03;37.58;;;;;;;;;;5031941;28;20409;-75
2022/07/21 07:57:04;;;;;;;53.03;33.47;;;;;;;;;;5010490;28;20074;-77
2022/07/21 07:59:30;;;;;;;57.10;36.07;;;;;;;;;;5030665;28;20397;-75
2022/07/21 08:01:55;;;;;;;61.65;37.80;;;;;;;;;;5013781;28;20271;-77
2022/07/21 08:04:23;;;;;;;55.73;34.73;;;;;;;;;;5033115;28;20033;-78
2022/07/21 08:06:51;;;;;;;53.65;33.88;;;;;;;;;;5027790;28;21131;-76
2022/07/21 08:09:19;;;;;;;55.75;34.65;;;;;;;;;;5026710;28;20485;-75
2022/07/21 08:11:46;;;;;;;50.40;33.67;;;;;;;;;;5024034;28;20033;-78
2022/07/21 08:14:12;;;;;;;48.33;29.98;;;;;;;;;;5030220;28;20481;-78
2022/07/21 08:16:37;;;;;;;54.00;33.30;;;;;;;;;;5034492;28;20022;-76
2022/07/21 08:19:02;;;;;;;49.95;32.15;;;;;;;;;;5040839;28;20017;-76
2022/07/21 08:21:33;;;;;;;51.95;31.25;;;;;;;;;;5014801;28;20075;-77
2022/07/21 08:23:58;;;;;;;51.85;30.73;;;;;;;;;;5029063;28;20021;-78
2022/07/21 08:26:27;;;;;;;46.20;29.20;;;;;;;;;;5016771;28;20028;-76
2022/07/21 08:28:56;;;;;;;43.25;27.90;;;;;;;;;;5029251;28;20048;-79
2022/07/21 08:31:24;;;;;;;42.75;26.08;;;;;;;;;;5019240;28;20037;-78
2022/07/21 08:33:50;;;;;;;46.45;27.98;;;;;;;;;;5027465;28;20436;-78
2022/07/21 08:36:16;;;;;;;45.42;26.13;;;;;;;;;;5027896;28;20137;-77
2022/07/21 08:38:41;;;;;;;34.45;24.00;;;;;;;;;;5031738;28;20030;-76
2022/07/21 08:41:08;;;;;;;38.75;24.00;;;;;;;;;;5031980;28;20051;-79
2022/07/21 08:43:33;;;;;;;37.45;25.17;;;;;;;;;;5015658;28;20021;-79
2022/07/21 08:45:59;;;;;;;34.80;24.10;;;;;;;;;;5027795;28;20025;-78
2022/07/21 08:48:24;;;;;;;39.90;25.38;;;;;;;;;;5004005;28;20537;-79
2022/07/21 08:50:50;;;;;;;39.95;26.25;;;;;;;;;;5018833;28;20041;-78
2022/07/21 08:53:15;;;;;;;36.17;25.00;;;;;;;;;;5014166;28;20087;-79
2022/07/21 08:55:41;;;;;;;35.65;23.33;;;;;;;;;;5019381;28;20033;-78
2022/07/21 08:58:10;;;;;;;32.47;21.55;;;;;;;;;;5015505;28;20033;-77
2022/07/21 09:00:36;;;;;;;36.65;22.45;;;;;;;;;;5015720;28;20573;-77
2022/07/21 09:03:16;;;;;;;17.45;13.90;;;;;;;;;;5016898;28;20044;-78
2022/07/21 09:05:42;;;;;;;22.45;16.98;;;;;;;;;;5015459;28;20029;-75
2022/07/21 09:08:07;;;;;;;24.30;16.77;;;;;;;;;;5021965;28;20111;-76
2022/07/21 09:10:36;;;;;;;20.67;15.43;;;;;;;;;;5016065;28;20030;-76
2022/07/21 09:13:03;;;;;;;24.75;18.92;;;;;;;;;;5016068;28;20033;-77
2022/07/21 09:15:31;;;;;;;29.20;19.58;;;;;;;;;;5025281;28;20021;-77
2022/07/21 09:18:07;;;;;;;25.35;19.17;;;;;;;;;;5003635;28;20029;-78
2022/07/21 09:20:33;;;;;;;29.33;20.25;;;;;;;;;;5023116;28;20095;-78
2022/07/21 09:23:09;;;;;;;41.38;29.63;;;;;;;;;;5007259;28;20033;-78
2022/07/21 09:25:39;;;;;;;35.03;25.33;;;;;;;;;;5001840;28;20036;-78
2022/07/21 09:28:08;;;;;;;39.25;27.60;;;;;;;;;;5023506;28;20053;-83
2022/07/21 09:30:52;;;;;;;53.08;33.72;;;;;;;;;;5018008;28;20072;-78
2022/07/21 09:33:21;;;;;;;44.72;31.85;;;;;;;;;;4999052;28;20047;-83
2022/07/21 09:35:57;;;;;;;38.20;27.58;;;;;;;;;;5016252;28;20037;-82
2022/07/21 09:38:22;;;;;;;39.35;26.45;;;;;;;;;;5004766;28;20025;-79
2022/07/21 09:40:48;;;;;;;37.40;26.90;;;;;;;;;;5003358;28;20025;-83
2022/07/21 09:43:28;;;;;;;36.08;26.52;;;;;;;;;;4998968;28;20040;-77
2022/07/21 09:45:54;;;;;;;38.50;25.27;;;;;;;;;;5005816;28;20026;-83
2022/07/21 09:48:36;;;;;;;32.17;23.05;;;;;;;;;;4999223;28;20017;-84
2022/07/21 09:51:01;;;;;;;;;;;;;;;;;;5017848;28;20758;-81
2022/07/21 09:53:47;;;;;;;35.20;23.00;;;;;;;;;;5019121;28;19999;-78
2022/07/21 09:56:12;;;;;;;30.40;19.88;;;;;;;;;;5022637;28;20274;-84
2022/07/21 09:58:37;;;;;;;30.48;21.70;;;;;;;;;;5007248;28;20416;-82
2022/07/21 10:01:03;;;;;;;28.63;21.20;;;;;;;;;;5021523;28;20034;-77
2022/07/21 10:03:28;;;;;;;28.17;21.25;;;;;;;;;;5020020;28;20030;-78
2022/07/21 10:05:54;;;;;;;30.38;21.17;;;;;;;;;;5017665;28;20021;-83
2022/07/21 10:08:19;;;;;;;34.85;23.60;;;;;;;;;;5020152;28;20129;-83
2022/07/21 10:10:44;;;;;;;29.25;20.13;;;;;;;;;;5005365;28;20048;-82
2022/07/21 10:13:10;;;;;;;31.65;21.30;;;;;;;;;;5004411;28;20033;-83
2022/07/21 10:15:35;;;;;;;29.75;19.83;;;;;;;;;;5019031;28;20033;-83
2022/07/21 10:18:01;;;;;;;32.13;21.98;;;;;;;;;;5021758;28;20029;-77
2022/07/21 10:20:28;;;;;;;31.10;20.75;;;;;;;;;;5019019;28;20060;-83
2022/07/21 10:22:57;;;;;;;32.20;22.30;;;;;;;;;;5020456;28;20527;-78
2022/07/21 10:25:23;;;;;;;30.00;22.48;;;;;;;;;;5004644;28;20198;-77
2022/07/21 10:28:07;;;;;;;34.17;24.50;;;;;;;;;;5006865;28;20025;-82
2022/07/21 10:30:36;;;;;;;29.73;21.35;;;;;;;;;;5025037;28;20394;-81
2022/07/21 10:33:02;;;;;;;36.38;24.80;;;;;;;;;;5020572;28;20037;-78
2022/07/21 10:35:28;;;;;;;32.58;23.27;;;;;;;;;;5021154;28;20041;-78
2022/07/21 10:37:54;;;;;;;30.42;21.65;;;;;;;;;;5021006;28;20069;-82
2022/07/21 10:40:19;;;;;;;32.72;21.23;;;;;;;;;;5019198;28;20168;-78
2022/07/21 10:42:45;;;;;;;33.90;22.45;;;;;;;;;;5022161;28;20520;-76
2022/07/21 10:45:30;;;;;;;31.75;24.35;;;;;;;;;;5027600;28;20025;-76
2022/07/21 10:47:55;;;;;;;30.30;20.60;;;;;;;;;;5023750;28;20041;-82
2022/07/21 10:50:31;;;;;;;28.17;20.15;;;;;;;;;;5025676;28;20033;-77
2022/07/21 10:52:57;;;;;;;22.38;16.25;;;;;;;;;;5002670;28;21993;-82
2022/07/21 10:55:23;;;;;;;26.33;17.83;;;;;;;;;;5002601;28;20060;-77
2022/07/21 10:58:08;;;;;;;21.88;16.40;;;;;;;;;;5023849;28;20052;-83
2022/07/21 11:00:35;;;;;;;21.63;15.65;;;;;;;;;;5017145;28;20065;-77
2022/07/21 11:03:01;;;;;;;22.05;14.82;;;;;;;;;;5023969;28;20048;-82
2022/07/21 11:05:28;;;;;;;21.83;13.65;;;;;;;;;;5022692;28;20033;-81
2022/07/21 11:08:12;;;;;;;20.20;14.50;;;;;;;;;;5005803;28;20045;-78
2022/07/21 11:10:39;;;;;;;20.23;14.90;;;;;;;;;;5002736;28;20084;-78
2022/07/21 11:13:04;;;;;;;24.05;14.68;;;;;;;;;;5000365;28;20436;-82
2022/07/21 11:15:48;;;;;;;22.90;14.93;;;;;;;;;;5019481;28;20092;-79
2022/07/21 11:18:26;;;;;;;22.00;13.05;;;;;;;;;;5016153;28;20025;-79
2022/07/21 11:21:11;;;;;;;22.67;14.23;;;;;;;;;;5020350;28;20480;-79
2022/07/21 11:23:37;;;;;;;21.92;13.25;;;;;;;;;;5016496;28;20508;-78
2022/07/21 11:26:02;;;;;;;15.88;11.20;;;;;;;;;;5016075;28;20030;-77
2022/07/21 11:28:31;;;;;;;18.33;14.15;;;;;;;;;;5016755;28;20025;-82
2022/07/21 11:31:28;;;;;;;14.35;11.40;;;;;;;;;;5018014;28;20504;-77
2022/07/21 11:33:54;;;;;;;16.45;13.52;;;;;;;;;;4980369;28;20394;-82
2022/07/21 11:36:23;;;;;;;13.82;10.90;;;;;;;;;;5023621;28;20128;-82
2022/07/21 11:38:59;;;;;;;15.65;10.98;;;;;;;;;;5021658;28;20037;-82
2022/07/21 11:41:24;;;;;;;17.70;11.90;;;;;;;;;;5008054;28;20952;-81
2022/07/21 11:43:52;;;;;;;17.88;13.85;;;;;;;;;;5023314;28;20025;-81
2022/07/21 11:46:17;;;;;;;18.20;13.68;;;;;;;;;;5007344;28;20033;-77
2022/07/21 11:48:42;;;;;;;14.38;11.70;;;;;;;;;;5022410;28;20041;-81
2022/07/21 11:51:08;;;;;;;12.80;10.23;;;;;;;;;;5015233;28;20075;-80
2022/07/21 11:53:33;;;;;;;13.43;11.15;;;;;;;;;;5022878;28;20029;-76
2022/07/21 11:56:12;;;;;;;13.32;10.95;;;;;;;;;;5017195;28;20045;-77
2022/07/21 11:58:37;;;;;;;12.35;9.48;;;;;;;;;;5021832;28;20095;-81
2022/07/21 12:01:06;;;;;;;14.70;12.40;;;;;;;;;;5008095;28;20033;-77
2022/07/21 12:03:32;;;;;;;12.45;10.75;;;;;;;;;;5028686;28;20375;-81
2022/07/21 12:06:01;;;;;;;10.65;9.40;;;;;;;;;;5030780;28;20021;-81
2022/07/21 12:08:26;;;;;;;11.00;9.50;;;;;;;;;;5023309;28;20038;-80
2022/07/21 12:11:03;;;;;;;11.27;9.25;;;;;;;;;;5008733;28;20063;-82
2022/07/21 12:13:28;;;;;;;11.32;7.80;;;;;;;;;;5026323;28;20025;-81
2022/07/21 12:15:55;;;;;;;9.13;7.93;;;;;;;;;;5006092;28;20074;-80
2022/07/21 12:18:23;;;;;;;13.77;8.00;;;;;;;;;;5007207;28;20336;-80
2022/07/21 12:20:49;;;;;;;10.95;8.50;;;;;;;;;;5024506;28;20076;-81
2022/07/21 12:23:23;;;;;;;11.27;8.13;;;;;;;;;;5008089;28;20033;-77
2022/07/21 12:25:48;;;;;;;9.13;7.75;;;;;;;;;;5025489;28;20024;-77
2022/07/21 12:28:14;;;;;;;9.93;8.05;;;;;;;;;;5022444;28;20108;-80
2022/07/21 12:30:44;;;;;;;10.70;8.35;;;;;;;;;;5001533;28;20037;-77
2022/07/21 12:33:13;;;;;;;10.27;8.20;;;;;;;;;;5023356;28;20033;-81
2022/07/21 12:35:43;;;;;;;9.50;7.15;;;;;;;;;;5023485;28;20112;-77
2022/07/21 12:38:10;;;;;;;8.48;7.43;;;;;;;;;;5026289;28;20021;-77
2022/07/21 12:40:40;;;;;;;11.63;8.38;;;;;;;;;;5024085;28;20036;-77
2022/07/21 12:43:13;;;;;;;8.23;6.75;;;;;;;;;;5020994;28;20144;-79
2022/07/21 12:45:48;;;;;;;10.20;8.05;;;;;;;;;;5010224;28;20028;-77
2022/07/21 12:48:15;;;;;;;10.48;7.30;;;;;;;;;;5015627;28;20025;-82
2022/07/21 12:50:40;;;;;;;11.13;8.80;;;;;;;;;;5019239;28;20034;-78
2022/07/21 12:53:10;;;;;;;11.25;7.85;;;;;;;;;;5020191;28;20716;-81
2022/07/21 12:55:36;;;;;;;10.18;6.53;;;;;;;;;;5015011;28;20041;-79
2022/07/21 12:58:02;;;;;;;8.25;6.47;;;;;;;;;;5006462;28;20627;-77
2022/07/21 13:00:27;;;;;;;7.10;5.50;;;;;;;;;;5003294;28;20091;-83
2022/07/21 13:02:54;;;;;;;7.97;5.93;;;;;;;;;;4994245;28;20564;-82
2022/07/21 13:05:19;;;;;;;7.05;5.03;;;;;;;;;;5021463;28;20639;-81
2022/07/21 13:07:45;;;;;;;5.45;4.80;;;;;;;;;;5006768;28;20651;-80
2022/07/21 13:10:10;;;;;;;6.70;6.07;;;;;;;;;;5023548;28;20029;-83
2022/07/21 13:12:36;;;;;;;7.35;5.28;;;;;;;;;;5023202;28;21045;-83
2022/07/21 13:15:02;;;;;;;5.05;4.55;;;;;;;;;;5020734;28;20431;-78
2022/07/21 13:17:27;;;;;;;6.28;4.35;;;;;;;;;;4998071;28;20053;-79
2022/07/21 13:19:53;;;;;;;6.85;5.82;;;;;;;;;;4982168;28;20056;-78
2022/07/21 13:22:18;;;;;;;6.20;5.03;;;;;;;;;;5019679;28;20580;-82
2022/07/21 13:24:43;;;;;;;9.83;5.83;;;;;;;;;;5016118;28;20852;-82
2022/07/21 13:27:08;;;;;;;7.35;6.38;;;;;;;;;;5019453;28;20309;-81
2022/07/21 13:29:33;;;;;;;12.05;7.93;;;;;;;;;;5018460;28;20014;-76
2022/07/21 13:31:59;;;;;;;8.52;7.07;;;;;;;;;;5005692;28;20025;-78
2022/07/21 13:34:24;;;;;;;11.82;8.70;;;;;;;;;;5018669;28;20032;-78
2022/07/21 13:36:49;;;;;;;9.88;7.60;;;;;;;;;;5019352;28;20052;-77
2022/07/21 13:39:14;;;;;;;8.47;7.53;;;;;;;;;;5023667;28;20125;-77
2022/07/21 13:41:40;;;;;;;10.18;8.43;;;;;;;;;;5018656;28;20270;-78
2022/07/21 13:44:05;;;;;;;11.50;8.50;;;;;;;;;;5023736;28;20080;-78
2022/07/21 13:46:31;;;;;;;9.35;7.25;;;;;;;;;;5025459;28;20064;-78
2022/07/21 13:48:56;;;;;;;10.15;7.50;;;;;;;;;;5007328;28;21333;-79
2022/07/21 13:51:21;;;;;;;12.55;8.32;;;;;;;;;;5025104;28;20545;-80
2022/07/21 13:53:47;;;;;;;11.90;9.23;;;;;;;;;;5023922;28;20147;-78
2022/07/21 13:56:13;;;;;;;8.88;7.18;;;;;;;;;;5007449;28;20096;-81
2022/07/21 13:58:39;;;;;;;8.35;7.00;;;;;;;;;;5025477;28;20034;-81
2022/07/21 14:01:04;;;;;;;10.93;6.90;;;;;;;;;;5029594;28;20488;-81
2022/07/21 14:03:30;;;;;;;11.07;7.50;;;;;;;;;;5025936;28;20068;-81
2022/07/21 14:05:55;;;;;;;10.65;7.80;;;;;;;;;;5027133;28;20021;-78
2022/07/21 14:08:20;;;;;;;10.80;8.63;;;;;;;;;;5029981;28;20486;-78
2022/07/21 14:10:45;;;;;;;14.48;9.40;;;;;;;;;;5029600;28;20291;-80
2022/07/21 14:13:11;;;;;;;10.77;7.93;;;;;;;;;;5021312;28;20482;-81
2022/07/21 14:15:36;;;;;;;10.90;8.35;;;;;;;;;;5026616;28;20030;-80
2022/07/21 14:18:01;;;;;;;8.83;7.10;;;;;;;;;;5030136;28;20037;-80
2022/07/21 14:20:27;;;;;;;10.32;8.02;;;;;;;;;;5024148;28;20344;-81